Terminal Aerodrome Forecast
Issued by NWS

Home | Current Version | Previous Version | Text Only | Print | Product List | Glossary On
Versions: 1 2 3 4 5 6 7 8 9 10 11 12 13
000
FTUS43 KDLH 230900 AAA
TAFBRD
TAF AMD
KBRD 230932Z 2310/2406 05007KT 4SM BR OVC006
      TEMPO 2310/2314 2SM -SN BR OVC004
     FM231500 36009G15KT 5SM -DZSN BR OVC007
     FM240300 34009KT 5SM -SN BR OVC008=

USA.gov is the U.S. government's official web portal to all federal, state and local government web resources and services.